createdAt,value
2022-09-21T00:01:31.031Z,4.60
2022-09-21T00:04:02.957Z,4.50
2022-09-21T00:06:33.399Z,5.60
2022-09-21T00:09:04.235Z,5.00
2022-09-21T00:11:33.127Z,4.70
2022-09-21T00:14:07.906Z,4.80
2022-09-21T00:16:36.071Z,4.20
2022-09-21T00:19:04.201Z,4.40
2022-09-21T00:21:33.143Z,4.60
2022-09-21T00:24:02.414Z,3.70
2022-09-21T00:26:30.568Z,4.70
2022-09-21T00:29:01.812Z,5.00
2022-09-21T00:31:30.760Z,4.10
2022-09-21T00:33:59.904Z,5.40
2022-09-21T00:36:28.301Z,5.10
2022-09-21T00:38:58.814Z,6.30
2022-09-21T00:41:26.879Z,5.10
2022-09-21T00:44:20.928Z,4.70
2022-09-21T00:46:52.198Z,4.50
2022-09-21T00:49:20.290Z,4.50
2022-09-21T00:51:48.139Z,4.40
2022-09-21T00:54:23.415Z,5.00
2022-09-21T00:56:50.850Z,4.40
2022-09-21T00:59:21.510Z,4.90
2022-09-21T01:01:49.898Z,4.30
2022-09-21T01:04:18.623Z,3.70
2022-09-21T01:06:47.625Z,4.40
2022-09-21T01:09:15.998Z,3.60
2022-09-21T01:11:59.221Z,3.60
2022-09-21T01:15:26.286Z,3.60
2022-09-21T01:18:22.201Z,5.00
2022-09-21T01:21:16.405Z,3.70
2022-09-21T01:24:15.036Z,3.70
2022-09-21T01:27:09.058Z,3.80
2022-09-21T01:29:44.564Z,3.60
2022-09-21T01:32:13.913Z,4.60
2022-09-21T01:35:06.866Z,4.50
2022-09-21T01:37:40.055Z,3.60
2022-09-21T01:40:18.233Z,2.90
2022-09-21T01:42:46.426Z,5.00
2022-09-21T01:45:16.981Z,3.90
2022-09-21T01:47:46.916Z,4.10
2022-09-21T01:50:14.745Z,5.10
2022-09-21T01:52:57.416Z,4.40
2022-09-21T01:55:39.961Z,4.50
2022-09-21T01:58:37.521Z,5.10
2022-09-21T02:01:05.328Z,4.80
2022-09-21T02:03:47.859Z,5.50
2022-09-21T02:06:16.486Z,4.60
2022-09-21T02:08:44.500Z,5.20
2022-09-21T02:11:13.882Z,4.60
2022-09-21T02:13:45.497Z,5.40
2022-09-21T02:16:42.276Z,5.00
2022-09-21T02:20:20.412Z,6.40
2022-09-21T02:23:00.006Z,5.90
2022-09-21T02:26:02.077Z,5.40
2022-09-21T02:28:48.789Z,6.20
2022-09-21T02:31:38.279Z,5.90
2022-09-21T02:34:46.370Z,6.30
2022-09-21T02:38:05.944Z,6.30
2022-09-21T02:40:57.977Z,6.80
2022-09-21T02:43:32.525Z,7.30
2022-09-21T02:46:14.859Z,6.50
2022-09-21T02:48:52.591Z,4.80
2022-09-21T02:51:32.873Z,5.60
2022-09-21T02:54:03.454Z,6.90
2022-09-21T02:56:31.626Z,7.90
2022-09-21T02:59:02.089Z,6.30
2022-09-21T03:01:30.903Z,6.70
2022-09-21T03:03:59.051Z,7.80
2022-09-21T03:06:26.707Z,6.00
2022-09-21T03:08:54.580Z,6.00
2022-09-21T03:11:22.245Z,6.90
2022-09-21T03:13:49.933Z,7.00
2022-09-21T03:16:18.481Z,6.60
2022-09-21T03:18:45.946Z,6.10
2022-09-21T03:21:14.626Z,5.50
2022-09-21T03:23:42.292Z,5.40
2022-09-21T03:26:09.850Z,4.50
2022-09-21T03:28:37.570Z,7.00
2022-09-21T03:31:06.729Z,7.10
2022-09-21T03:33:34.982Z,7.00
2022-09-21T03:36:03.062Z,7.40
2022-09-21T03:38:31.535Z,5.70
2022-09-21T03:40:59.300Z,7.30
2022-09-21T03:43:27.164Z,7.10
2022-09-21T03:45:54.899Z,7.40
2022-09-21T03:48:23.045Z,7.40
2022-09-21T03:50:50.862Z,7.60
2022-09-21T03:53:18.452Z,4.80
2022-09-21T03:55:46.096Z,8.00
2022-09-21T03:58:13.869Z,6.40
2022-09-21T04:00:42.679Z,7.00
2022-09-21T04:03:10.312Z,7.90
2022-09-21T04:05:38.997Z,7.60
2022-09-21T04:08:07.072Z,6.20
2022-09-21T04:10:34.815Z,7.40
2022-09-21T04:13:03.195Z,6.70
2022-09-21T04:15:31.442Z,7.40
2022-09-21T04:17:59.350Z,7.40
2022-09-21T04:20:27.114Z,7.00
2022-09-21T04:22:54.768Z,6.30
2022-09-21T04:25:22.426Z,6.30
2022-09-21T04:27:50.800Z,9.20
2022-09-21T04:30:19.140Z,7.70
2022-09-21T04:32:46.942Z,8.10
2022-09-21T04:35:15.594Z,7.90
2022-09-21T04:37:44.220Z,8.50
2022-09-21T04:40:11.915Z,6.90
2022-09-21T04:42:40.053Z,7.50
2022-09-21T04:45:08.957Z,6.30
2022-09-21T04:47:36.808Z,6.30
2022-09-21T04:50:06.002Z,6.10
2022-09-21T04:52:33.666Z,7.40
2022-09-21T04:55:01.537Z,5.80
2022-09-21T04:57:29.813Z,6.60
2022-09-21T04:59:57.466Z,7.50
2022-09-21T05:02:25.064Z,7.70
2022-09-21T05:04:53.205Z,9.00
2022-09-21T05:07:21.173Z,7.50
2022-09-21T05:10:04.456Z,6.80
2022-09-21T05:12:39.777Z,9.50
2022-09-21T05:15:11.224Z,8.10
2022-09-21T05:17:38.957Z,7.20
2022-09-21T05:20:07.415Z,8.50
2022-09-21T05:22:35.296Z,8.30
2022-09-21T05:25:03.165Z,7.70
2022-09-21T05:27:31.135Z,7.00
2022-09-21T05:29:59.716Z,6.30
2022-09-21T05:33:03.724Z,8.30
2022-09-21T05:35:45.115Z,7.20
2022-09-21T05:38:22.605Z,6.70
2022-09-21T05:40:52.775Z,6.60
2022-09-21T05:43:21.306Z,7.70
2022-09-21T05:45:59.833Z,7.60
2022-09-21T05:48:36.698Z,6.10
2022-09-21T05:51:32.416Z,7.10
2022-09-21T05:54:23.785Z,7.80
2022-09-21T05:57:27.348Z,7.30
2022-09-21T06:00:18.965Z,7.10
2022-09-21T06:03:29.510Z,6.90
2022-09-21T06:05:57.909Z,7.30
2022-09-21T06:08:26.185Z,7.50
2022-09-21T06:10:53.959Z,6.50
2022-09-21T06:13:22.015Z,6.60
2022-09-21T06:15:49.930Z,6.40
2022-09-21T06:18:18.300Z,4.90
2022-09-21T06:20:46.844Z,13.00
2022-09-21T06:23:14.700Z,7.00
2022-09-21T06:25:43.301Z,7.80
2022-09-21T06:28:12.595Z,8.90
2022-09-21T06:30:42.117Z,6.90
2022-09-21T06:33:12.436Z,7.40
2022-09-21T06:35:40.416Z,6.70
2022-09-21T06:38:09.284Z,5.50
2022-09-21T06:40:37.405Z,7.20
2022-09-21T06:43:05.629Z,6.20
2022-09-21T06:45:33.773Z,6.60
2022-09-21T06:48:01.998Z,8.90
2022-09-21T06:50:29.649Z,9.20
2022-09-21T06:53:01.293Z,7.40
2022-09-21T06:55:30.082Z,5.60
2022-09-21T06:58:05.110Z,6.10
2022-09-21T07:00:33.017Z,6.70
2022-09-21T07:03:00.753Z,6.40
2022-09-21T07:05:28.992Z,6.60
2022-09-21T07:07:58.768Z,7.90
2022-09-21T07:10:27.024Z,6.20
2022-09-21T07:12:55.093Z,7.00
2022-09-21T07:15:23.553Z,5.90
2022-09-21T07:17:52.241Z,5.10
2022-09-21T07:20:20.415Z,5.20
2022-09-21T07:22:48.285Z,6.70
2022-09-21T07:25:16.513Z,7.40
2022-09-21T07:27:44.220Z,6.30
2022-09-21T07:30:12.503Z,6.70
2022-09-21T07:32:40.473Z,6.60
2022-09-21T07:35:08.747Z,7.20
2022-09-21T07:37:37.030Z,6.30
2022-09-21T07:40:06.394Z,6.40
2022-09-21T07:42:34.706Z,7.00
2022-09-21T07:45:04.578Z,8.20
2022-09-21T07:47:34.113Z,6.80
2022-09-21T07:50:01.730Z,7.50
2022-09-21T07:52:29.645Z,5.70
2022-09-21T07:54:57.411Z,7.40
2022-09-21T07:57:43.915Z,5.80
2022-09-21T08:00:12.795Z,5.00
2022-09-21T08:02:43.942Z,6.40
2022-09-21T08:05:16.031Z,6.90
2022-09-21T08:07:44.284Z,6.60
2022-09-21T08:10:14.951Z,6.40
2022-09-21T08:12:43.928Z,4.80
2022-09-21T08:15:30.698Z,4.20
2022-09-21T08:18:01.248Z,4.10
2022-09-21T08:20:29.218Z,4.10
2022-09-21T08:22:57.185Z,13.80
2022-09-21T08:25:25.156Z,8.80
2022-09-21T08:27:57.331Z,12.80
2022-09-21T08:30:27.850Z,6.80
2022-09-21T08:32:55.819Z,3.60
2022-09-21T08:35:23.997Z,3.50
2022-09-21T08:37:54.621Z,3.10
2022-09-21T08:40:22.460Z,2.90
2022-09-21T08:43:00.710Z,3.60
2022-09-21T08:45:35.301Z,5.20
2022-09-21T08:48:06.137Z,6.60
2022-09-21T08:50:48.665Z,8.80
2022-09-21T08:53:26.916Z,3.40
2022-09-21T08:56:02.557Z,3.60
2022-09-21T08:58:32.077Z,2.70
2022-09-21T09:01:37.311Z,2.30
2022-09-21T09:04:30.638Z,1.90
2022-09-21T09:07:46.939Z,2.00
2022-09-21T09:10:40.313Z,1.80
2022-09-21T09:13:31.523Z,2.00
2022-09-21T09:16:15.029Z,2.30
2022-09-21T09:18:49.885Z,1.80
2022-09-21T09:21:32.406Z,1.20
2022-09-21T09:24:06.321Z,1.70
2022-09-21T09:27:19.215Z,1.60
2022-09-21T09:30:05.426Z,1.70
2022-09-21T09:33:06.357Z,2.90
2022-09-21T09:35:47.885Z,3.70
2022-09-21T09:38:57.185Z,2.50
2022-09-21T09:41:51.180Z,2.00
2022-09-21T09:44:48.415Z,1.20
2022-09-21T09:47:54.793Z,1.00
2022-09-21T09:50:30.637Z,1.00
2022-09-21T09:53:16.520Z,1.10
2022-09-21T09:55:54.139Z,1.00
2022-09-21T09:58:49.426Z,1.70
2022-09-21T10:01:49.294Z,1.50
2022-09-21T10:04:17.768Z,1.10
2022-09-21T10:06:46.718Z,1.50
2022-09-21T10:09:35.689Z,1.30
2022-09-21T10:12:24.236Z,1.70
2022-09-21T10:14:53.843Z,1.00
2022-09-21T10:17:21.804Z,0.90
2022-09-21T10:19:49.670Z,1.10
2022-09-21T10:22:18.867Z,0.50
2022-09-21T10:24:49.905Z,0.60
2022-09-21T10:27:48.599Z,0.70
2022-09-21T10:30:35.737Z,0.90
2022-09-21T10:33:06.648Z,1.00
2022-09-21T10:35:34.717Z,0.70
2022-09-21T10:38:27.387Z,0.70
2022-09-21T10:40:55.045Z,0.60
2022-09-21T10:43:39.834Z,1.10
2022-09-21T10:46:10.995Z,2.10
2022-09-21T10:48:39.516Z,3.90
2022-09-21T10:51:07.178Z,1.80
2022-09-21T10:53:36.277Z,3.30
2022-09-21T10:56:15.880Z,2.40
2022-09-21T10:59:20.043Z,2.30
2022-09-21T11:01:51.717Z,3.60
2022-09-21T11:04:45.137Z,2.90
2022-09-21T11:07:21.726Z,4.60
2022-09-21T11:10:11.110Z,1.50
2022-09-21T11:12:51.863Z,0.80
2022-09-21T11:15:35.083Z,0.50
2022-09-21T11:18:36.045Z,1.30
2022-09-21T11:21:10.052Z,1.00
2022-09-21T11:24:21.843Z,0.60
2022-09-21T11:26:56.213Z,0.70
2022-09-21T11:29:42.579Z,0.80
2022-09-21T11:32:33.677Z,0.70
2022-09-21T11:35:17.620Z,0.80
2022-09-21T11:38:01.249Z,0.70
2022-09-21T11:40:47.960Z,0.80
2022-09-21T11:44:03.259Z,0.80
2022-09-21T11:46:56.391Z,0.60
2022-09-21T11:49:50.852Z,1.10
2022-09-21T11:53:10.700Z,3.40
2022-09-21T11:56:00.154Z,1.70
2022-09-21T11:59:17.370Z,1.20
2022-09-21T12:01:54.802Z,2.60
2022-09-21T12:04:37.003Z,2.90
2022-09-21T12:07:41.071Z,5.70
2022-09-21T12:10:36.889Z,5.20
2022-09-21T12:13:55.043Z,5.40
2022-09-21T12:16:43.738Z,6.30
2022-09-21T12:19:27.848Z,5.80
2022-09-21T12:22:11.689Z,3.20
2022-09-21T12:24:54.908Z,4.20
2022-09-21T12:27:45.616Z,5.20
2022-09-21T12:30:24.390Z,5.00
2022-09-21T12:33:31.229Z,5.40
2022-09-21T12:36:06.009Z,1.80
2022-09-21T12:38:49.881Z,1.00
2022-09-21T12:41:31.882Z,0.60
2022-09-21T12:44:15.180Z,0.90
2022-09-21T12:46:53.241Z,1.00
2022-09-21T12:49:26.607Z,1.60
2022-09-21T12:51:58.401Z,1.70
2022-09-21T12:54:36.173Z,1.40
2022-09-21T12:58:16.578Z,0.70
2022-09-21T13:01:26.186Z,0.90
2022-09-21T13:04:21.684Z,0.60
2022-09-21T13:07:49.604Z,1.40
2022-09-21T13:10:23.373Z,0.90
2022-09-21T13:13:01.963Z,1.30
2022-09-21T13:15:44.826Z,1.10
2022-09-21T13:18:39.693Z,0.30
2022-09-21T13:21:20.072Z,0.60
2022-09-21T13:23:58.682Z,0.90
2022-09-21T13:26:35.768Z,1.20
2022-09-21T13:29:19.096Z,0.70
2022-09-21T13:32:13.563Z,0.50
2022-09-21T13:34:45.366Z,1.50
2022-09-21T13:37:24.776Z,2.60
2022-09-21T13:40:01.544Z,3.00
2022-09-21T13:42:35.113Z,2.40
2022-09-21T13:45:18.237Z,2.20
2022-09-21T13:47:50.762Z,2.00
2022-09-21T13:50:39.521Z,2.50
2022-09-21T13:53:33.569Z,1.30
2022-09-21T13:56:09.024Z,1.60
2022-09-21T13:58:44.733Z,1.80
2022-09-21T14:01:45.777Z,3.50
2022-09-21T14:04:37.100Z,1.80
2022-09-21T14:07:07.002Z,2.10
2022-09-21T14:09:59.289Z,2.70
2022-09-21T14:12:27.773Z,2.00
2022-09-21T14:15:35.137Z,1.40
2022-09-21T14:18:16.255Z,2.90
2022-09-21T14:21:10.542Z,3.40
2022-09-21T14:23:39.111Z,1.00
2022-09-21T14:26:33.887Z,1.10
2022-09-21T14:29:48.171Z,0.90
2022-09-21T14:32:24.341Z,1.00
2022-09-21T14:34:56.919Z,1.90
2022-09-21T14:37:32.957Z,1.90
2022-09-21T14:40:05.612Z,1.20
2022-09-21T14:42:34.226Z,1.90
2022-09-21T14:45:03.896Z,1.30
2022-09-21T14:48:02.639Z,1.40
2022-09-21T14:50:33.144Z,0.80
2022-09-21T14:53:35.528Z,0.50
2022-09-21T14:56:31.153Z,0.60
2022-09-21T14:59:31.071Z,0.60
2022-09-21T15:02:16.136Z,0.60
2022-09-21T15:05:05.400Z,0.70
2022-09-21T15:08:40.562Z,0.80
2022-09-21T15:11:26.736Z,1.10
2022-09-21T15:14:10.287Z,1.30
2022-09-21T15:16:42.986Z,1.50
2022-09-21T15:19:25.486Z,1.90
2022-09-21T15:22:15.447Z,1.70
2022-09-21T15:25:03.687Z,1.20
2022-09-21T15:27:32.967Z,0.90
2022-09-21T15:30:03.648Z,1.00
2022-09-21T15:32:34.667Z,0.60
2022-09-21T15:35:27.801Z,0.90
2022-09-21T15:37:56.733Z,0.90
2022-09-21T15:40:34.077Z,0.70
2022-09-21T15:43:19.075Z,0.80
2022-09-21T15:46:06.603Z,0.80
2022-09-21T15:48:38.148Z,0.70
2022-09-21T15:51:13.288Z,0.80
2022-09-21T15:53:53.598Z,0.90
2022-09-21T15:56:26.191Z,0.90
2022-09-21T15:59:09.002Z,0.60
2022-09-21T16:01:42.517Z,1.20
2022-09-21T16:04:21.631Z,1.20
2022-09-21T16:07:35.647Z,1.80
2022-09-21T16:10:30.319Z,1.40
2022-09-21T16:13:42.578Z,2.20
2022-09-21T16:16:14.415Z,1.70
2022-09-21T16:18:49.294Z,3.00
2022-09-21T16:21:34.251Z,1.30
2022-09-21T16:24:18.596Z,1.30
2022-09-21T16:27:00.186Z,2.70
2022-09-21T16:29:38.904Z,1.90
2022-09-21T16:32:31.843Z,2.00
2022-09-21T16:35:31.224Z,2.10
2022-09-21T16:37:59.364Z,1.80
2022-09-21T16:40:27.853Z,1.90
2022-09-21T16:42:56.336Z,2.40
2022-09-21T16:45:31.476Z,1.30
2022-09-21T16:48:00.274Z,1.60
2022-09-21T16:50:28.835Z,2.70
2022-09-21T16:52:56.735Z,2.40
2022-09-21T16:55:28.896Z,4.30
2022-09-21T16:57:57.250Z,4.20
2022-09-21T17:00:25.009Z,4.50
2022-09-21T17:02:52.983Z,3.00
2022-09-21T17:05:21.784Z,3.60
2022-09-21T17:07:54.043Z,4.50
2022-09-21T17:10:28.825Z,5.30
2022-09-21T17:12:57.363Z,4.60
2022-09-21T17:15:25.934Z,4.30
2022-09-21T17:17:54.472Z,3.70
2022-09-21T17:20:41.852Z,3.00
2022-09-21T17:23:10.316Z,3.10
2022-09-21T17:25:38.694Z,5.00
2022-09-21T17:28:23.284Z,4.60
2022-09-21T17:30:51.980Z,3.90
2022-09-21T17:33:21.244Z,3.00
2022-09-21T17:35:52.363Z,1.80
2022-09-21T17:38:20.756Z,2.20
2022-09-21T17:40:49.178Z,2.10
2022-09-21T17:43:52.434Z,1.70
2022-09-21T17:47:01.365Z,1.60
2022-09-21T17:49:29.535Z,1.40
2022-09-21T17:52:16.864Z,1.60
2022-09-21T17:54:45.530Z,1.90
2022-09-21T17:57:50.271Z,2.60
2022-09-21T18:00:23.904Z,2.70
2022-09-21T18:02:53.719Z,2.60
2022-09-21T18:05:29.467Z,2.70
2022-09-21T18:07:58.236Z,2.30
2022-09-21T18:10:26.983Z,2.00
2022-09-21T18:13:19.565Z,1.80
2022-09-21T18:15:58.133Z,1.80
2022-09-21T18:18:43.146Z,1.70
2022-09-21T18:21:24.432Z,2.10
2022-09-21T18:24:14.838Z,2.10
2022-09-21T18:26:43.724Z,2.30
2022-09-21T18:29:46.545Z,3.20
2022-09-21T18:32:56.994Z,2.30
2022-09-21T18:35:51.556Z,2.20
2022-09-21T18:38:57.023Z,2.60
2022-09-21T18:41:54.911Z,2.00
2022-09-21T18:44:59.290Z,2.80
2022-09-21T18:48:21.433Z,2.30
2022-09-21T18:51:34.144Z,2.60
2022-09-21T18:54:02.431Z,3.10
2022-09-21T18:56:37.662Z,3.20
2022-09-21T18:59:06.922Z,3.10
2022-09-21T19:01:35.616Z,3.70
2022-09-21T19:04:06.938Z,3.20
2022-09-21T19:07:02.313Z,2.50
2022-09-21T19:09:55.889Z,3.80
2022-09-21T19:12:47.196Z,4.10
2022-09-21T19:15:55.493Z,3.00
2022-09-21T19:18:36.078Z,2.70
2022-09-21T19:21:26.771Z,2.80
2022-09-21T19:24:45.539Z,3.00
2022-09-21T19:27:39.671Z,2.80
2022-09-21T19:30:12.079Z,3.00
2022-09-21T19:32:46.358Z,3.10
2022-09-21T19:35:24.232Z,5.00
2022-09-21T19:37:54.361Z,2.70
2022-09-21T19:40:28.227Z,3.00
2022-09-21T19:44:07.788Z,2.90
2022-09-21T19:46:58.803Z,3.50
2022-09-21T19:49:37.955Z,4.40
2022-09-21T19:52:05.884Z,3.50
2022-09-21T19:54:52.489Z,3.10
2022-09-21T19:57:40.113Z,3.20
2022-09-21T20:00:15.488Z,2.90
2022-09-21T20:03:03.125Z,3.20
2022-09-21T20:06:04.546Z,2.70
2022-09-21T20:09:03.020Z,2.50
2022-09-21T20:11:44.568Z,2.70
2022-09-21T20:14:28.258Z,3.50
2022-09-21T20:17:00.155Z,3.30
2022-09-21T20:20:14.469Z,4.00
2022-09-21T20:22:42.449Z,2.70
2022-09-21T20:25:13.376Z,2.70
2022-09-21T20:27:51.175Z,2.90
2022-09-21T20:30:21.990Z,3.00
2022-09-21T20:32:53.864Z,2.80
2022-09-21T20:35:25.380Z,2.80
2022-09-21T20:37:53.294Z,2.30
2022-09-21T20:40:26.207Z,4.80
2022-09-21T20:42:54.562Z,2.70
2022-09-21T20:45:22.529Z,3.10
2022-09-21T20:47:54.786Z,3.10
2022-09-21T20:50:30.485Z,3.50
2022-09-21T20:52:58.622Z,4.00
2022-09-21T20:55:28.961Z,5.00
2022-09-21T20:57:56.909Z,3.90
2022-09-21T21:00:26.417Z,3.80
2022-09-21T21:02:55.912Z,4.10
2022-09-21T21:05:24.016Z,3.50
2022-09-21T21:07:52.055Z,4.30
2022-09-21T21:10:21.554Z,2.80
2022-09-21T21:12:49.353Z,3.30
2022-09-21T21:15:17.492Z,4.40
2022-09-21T21:17:46.818Z,3.90
2022-09-21T21:20:15.960Z,3.40
2022-09-21T21:22:48.324Z,4.20
2022-09-21T21:25:16.228Z,4.50
2022-09-21T21:27:43.787Z,4.00
2022-09-21T21:30:12.576Z,3.80
2022-09-21T21:32:42.082Z,3.90
2022-09-21T21:35:10.979Z,4.40
2022-09-21T21:37:40.296Z,3.40
2022-09-21T21:40:09.654Z,4.00
2022-09-21T21:42:37.744Z,4.60
2022-09-21T21:45:06.366Z,4.40
2022-09-21T21:47:41.449Z,4.80
2022-09-21T21:50:10.790Z,3.70
2022-09-21T21:52:39.153Z,4.00
2022-09-21T21:55:07.835Z,3.60
2022-09-21T21:57:35.494Z,4.10
2022-09-21T22:00:05.523Z,3.90
2022-09-21T22:02:33.114Z,3.90
2022-09-21T22:05:00.828Z,4.40
2022-09-21T22:07:28.703Z,4.10
2022-09-21T22:09:56.252Z,4.30
2022-09-21T22:12:26.785Z,4.10
2022-09-21T22:14:54.645Z,3.40
2022-09-21T22:17:23.253Z,4.00
2022-09-21T22:19:51.619Z,4.10
2022-09-21T22:22:19.494Z,3.70
2022-09-21T22:24:48.160Z,3.60
2022-09-21T22:27:16.653Z,3.50
2022-09-21T22:29:44.926Z,3.70
2022-09-21T22:32:13.197Z,4.00
2022-09-21T22:34:40.956Z,4.00
2022-09-21T22:37:09.235Z,3.70
2022-09-21T22:39:37.212Z,3.20
2022-09-21T22:42:05.375Z,3.50
2022-09-21T22:44:32.937Z,4.10
2022-09-21T22:47:00.505Z,4.20
2022-09-21T22:49:28.156Z,3.60
2022-09-21T22:51:57.556Z,3.80
2022-09-21T22:54:27.475Z,3.60
2022-09-21T22:56:55.172Z,4.40
2022-09-21T22:59:22.798Z,3.20
2022-09-21T23:01:50.765Z,4.20
2022-09-21T23:04:18.769Z,3.30
2022-09-21T23:06:46.603Z,3.30
2022-09-21T23:09:19.995Z,3.60
2022-09-21T23:11:52.779Z,3.70
2022-09-21T23:14:21.472Z,3.80
2022-09-21T23:16:49.453Z,3.40
2022-09-21T23:19:17.705Z,3.90
2022-09-21T23:21:52.786Z,3.80
2022-09-21T23:24:20.701Z,3.50
2022-09-21T23:26:51.507Z,3.70
2022-09-21T23:29:19.516Z,3.80
2022-09-21T23:31:47.297Z,4.00
2022-09-21T23:34:15.727Z,3.80
2022-09-21T23:36:44.238Z,3.70
2022-09-21T23:39:14.202Z,3.80
2022-09-21T23:41:41.810Z,3.50
2022-09-21T23:44:09.556Z,4.50
2022-09-21T23:46:38.513Z,3.90
2022-09-21T23:49:06.340Z,4.00
2022-09-21T23:51:34.306Z,4.40
2022-09-21T23:54:02.744Z,3.70
2022-09-21T23:56:31.564Z,4.10
2022-09-21T23:58:59.852Z,4.20
